Time;durP1;ratioP1;P1;durP2;ratioP2;P2;SDS_P1;SDS_P2;PMS_P1;PMS_P2;Temp;Humidity;BMP_temperature;BMP_pressure;BME280_temperature;BME280_humidity;BME280_pressure;Samples;Min_cycle;Max_cycle;Signal;HPM_P1;HPM_P2
2021/10/23 00:00:33;;;;;;;15.90;3.67;;;;;;;;;;5063397;28;20115;-68
2021/10/23 00:02:59;;;;;;;20.85;2.67;;;;;;;;;;5063158;28;20053;-68
2021/10/23 00:05:25;;;;;;;15.15;2.35;;;;;;;;;;5071736;28;20040;-67
2021/10/23 00:07:51;;;;;;;9.93;1.85;;;;;;;;;;5077066;28;20080;-68
2021/10/23 00:10:18;;;;;;;12.30;2.10;;;;;;;;;;5084851;28;20036;-68
2021/10/23 00:12:44;;;;;;;9.52;1.95;;;;;;;;;;5083529;28;20121;-68
2021/10/23 00:15:10;;;;;;;14.40;1.63;;;;;;;;;;5089644;28;20055;-68
2021/10/23 00:17:36;;;;;;;13.32;2.42;;;;;;;;;;5085419;28;20051;-68
2021/10/23 00:20:03;;;;;;;8.25;1.45;;;;;;;;;;5084764;28;20330;-67
2021/10/23 00:22:30;;;;;;;11.73;1.88;;;;;;;;;;5087167;28;20603;-67
2021/10/23 00:24:56;;;;;;;17.42;1.95;;;;;;;;;;5084634;28;20093;-68
2021/10/23 00:27:23;;;;;;;17.98;2.80;;;;;;;;;;5089896;28;20060;-69
2021/10/23 00:29:49;;;;;;;11.88;1.98;;;;;;;;;;5084356;28;20139;-67
2021/10/23 00:32:15;;;;;;;15.38;3.30;;;;;;;;;;5086190;28;20408;-67
2021/10/23 00:34:41;;;;;;;6.47;1.60;;;;;;;;;;5076452;28;20112;-67
2021/10/23 00:37:07;;;;;;;10.57;1.67;;;;;;;;;;5078981;28;20047;-67
2021/10/23 00:39:33;;;;;;;13.35;2.40;;;;;;;;;;5075178;28;20075;-67
2021/10/23 00:41:59;;;;;;;6.40;1.83;;;;;;;;;;5081584;28;20044;-67
2021/10/23 00:44:28;;;;;;;14.23;2.00;;;;;;;;;;5079859;28;20040;-67
2021/10/23 00:46:54;;;;;;;13.30;2.70;;;;;;;;;;5082983;28;20494;-68
2021/10/23 00:49:20;;;;;;;8.45;2.63;;;;;;;;;;5080877;28;20116;-67
2021/10/23 00:51:46;;;;;;;7.40;1.85;;;;;;;;;;5077362;28;20049;-67
2021/10/23 00:54:13;;;;;;;15.32;2.10;;;;;;;;;;5086127;28;20048;-68
2021/10/23 00:56:39;;;;;;;10.00;1.90;;;;;;;;;;5083314;28;20077;-67
2021/10/23 00:59:05;;;;;;;9.82;3.10;;;;;;;;;;5083286;28;20087;-67
2021/10/23 01:01:32;;;;;;;11.48;2.42;;;;;;;;;;5075981;28;20056;-68
2021/10/23 01:03:58;;;;;;;9.82;1.75;;;;;;;;;;5082729;28;20111;-68
2021/10/23 01:06:24;;;;;;;14.68;1.80;;;;;;;;;;5068230;28;20076;-68
2021/10/23 01:08:51;;;;;;;14.05;2.22;;;;;;;;;;5082268;28;20091;-67
2021/10/23 01:11:17;;;;;;;11.98;1.90;;;;;;;;;;5085935;28;20052;-67
2021/10/23 01:13:43;;;;;;;11.48;2.25;;;;;;;;;;5081173;28;20079;-67
2021/10/23 01:16:11;;;;;;;12.98;2.30;;;;;;;;;;5068510;28;20048;-67
2021/10/23 01:18:37;;;;;;;14.23;2.03;;;;;;;;;;5066897;28;20041;-67
2021/10/23 01:21:03;;;;;;;17.73;2.50;;;;;;;;;;5066111;28;20075;-67
2021/10/23 01:23:29;;;;;;;16.63;2.35;;;;;;;;;;5072488;28;20153;-68
2021/10/23 01:25:55;;;;;;;12.60;2.20;;;;;;;;;;5066327;28;20135;-68
2021/10/23 01:28:21;;;;;;;10.95;2.22;;;;;;;;;;5066018;28;20124;-67
2021/10/23 01:30:48;;;;;;;11.15;2.00;;;;;;;;;;5072303;28;20080;-67
2021/10/23 01:33:14;;;;;;;10.63;1.88;;;;;;;;;;5066138;28;20045;-68
2021/10/23 01:35:40;;;;;;;15.68;2.45;;;;;;;;;;5066291;28;20132;-67
2021/10/23 01:38:06;;;;;;;17.33;3.22;;;;;;;;;;5073862;28;20041;-67
2021/10/23 01:40:33;;;;;;;8.35;1.90;;;;;;;;;;5074271;28;20050;-67
2021/10/23 01:42:59;;;;;;;8.17;2.13;;;;;;;;;;5070053;28;20060;-67
2021/10/23 01:45:25;;;;;;;10.73;1.48;;;;;;;;;;5065837;28;20071;-67
2021/10/23 01:47:51;;;;;;;14.75;1.85;;;;;;;;;;5065695;28;20169;-67
2021/10/23 01:50:19;;;;;;;8.65;1.48;;;;;;;;;;5065925;28;20112;-67
2021/10/23 01:52:45;;;;;;;;;;;;;;;;;;5072865;28;20060;-67
2021/10/23 01:55:12;;;;;;;8.95;1.63;;;;;;;;;;5064896;28;19935;-67
2021/10/23 01:57:39;;;;;;;16.38;2.55;;;;;;;;;;5065601;28;20040;-67
2021/10/23 02:00:06;;;;;;;15.82;2.22;;;;;;;;;;5065653;28;20037;-67
2021/10/23 02:02:32;;;;;;;16.63;2.42;;;;;;;;;;5066360;28;20041;-67
2021/10/23 02:04:58;;;;;;;10.50;2.55;;;;;;;;;;5065606;28;20100;-67
2021/10/23 02:07:24;;;;;;;13.23;1.70;;;;;;;;;;5065496;28;20044;-67
2021/10/23 02:09:50;;;;;;;9.82;1.80;;;;;;;;;;5064797;28;20132;-67
2021/10/23 02:12:16;;;;;;;16.73;1.83;;;;;;;;;;5066298;28;20120;-67
2021/10/23 02:14:43;;;;;;;14.75;1.98;;;;;;;;;;5067711;28;20124;-67
2021/10/23 02:17:09;;;;;;;16.00;1.77;;;;;;;;;;5065474;28;20052;-67
2021/10/23 02:19:35;;;;;;;17.60;2.60;;;;;;;;;;5065405;28;20045;-67
2021/10/23 02:22:01;;;;;;;17.90;2.20;;;;;;;;;;5079580;28;20060;-67
2021/10/23 02:24:27;;;;;;;9.10;1.88;;;;;;;;;;5071361;28;20074;-67
2021/10/23 02:26:54;;;;;;;15.68;2.15;;;;;;;;;;5069938;28;20104;-67
2021/10/23 02:29:20;;;;;;;21.50;2.35;;;;;;;;;;5065402;28;20055;-67
2021/10/23 02:31:46;;;;;;;14.40;1.70;;;;;;;;;;5064911;28;20052;-67
2021/10/23 02:34:12;;;;;;;12.57;1.73;;;;;;;;;;5065140;28;20402;-67
2021/10/23 02:36:38;;;;;;;12.75;1.40;;;;;;;;;;5065323;28;20049;-67
2021/10/23 02:39:05;;;;;;;11.48;1.92;;;;;;;;;;5065156;28;20041;-67
2021/10/23 02:41:31;;;;;;;9.63;1.88;;;;;;;;;;5077240;28;20049;-68
2021/10/23 02:43:59;;;;;;;10.60;1.75;;;;;;;;;;5064756;28;20075;-67
2021/10/23 02:46:25;;;;;;;10.30;2.17;;;;;;;;;;5064757;28;20045;-67
2021/10/23 02:48:51;;;;;;;11.52;2.88;;;;;;;;;;5087416;28;20056;-67
2021/10/23 02:51:17;;;;;;;12.95;2.42;;;;;;;;;;5068171;28;20049;-67
2021/10/23 02:53:43;;;;;;;16.30;2.28;;;;;;;;;;5065061;28;20052;-67
2021/10/23 02:56:09;;;;;;;21.67;2.60;;;;;;;;;;5064103;28;20277;-67
2021/10/23 02:58:36;;;;;;;12.25;1.92;;;;;;;;;;5080348;28;20060;-67
2021/10/23 03:01:02;;;;;;;10.85;2.25;;;;;;;;;;5064396;28;20500;-67
2021/10/23 03:03:28;;;;;;;15.85;2.75;;;;;;;;;;5064955;28;21861;-67
2021/10/23 03:05:55;;;;;;;11.18;1.77;;;;;;;;;;5073826;28;20045;-67
2021/10/23 03:08:21;;;;;;;12.38;1.80;;;;;;;;;;5064558;28;20532;-67
2021/10/23 03:10:47;;;;;;;22.20;2.97;;;;;;;;;;5063627;28;20040;-67
2021/10/23 03:13:13;;;;;;;10.73;1.88;;;;;;;;;;5066211;28;20044;-67
2021/10/23 03:15:39;;;;;;;15.45;1.73;;;;;;;;;;5064746;28;20044;-68
2021/10/23 03:18:05;;;;;;;18.17;2.05;;;;;;;;;;5065139;28;20133;-68
2021/10/23 03:20:31;;;;;;;7.68;1.50;;;;;;;;;;5064214;28;20049;-68
2021/10/23 03:22:58;;;;;;;8.10;1.77;;;;;;;;;;5064218;28;20587;-68
2021/10/23 03:25:24;;;;;;;13.18;1.95;;;;;;;;;;5063444;28;20045;-68
2021/10/23 03:27:50;;;;;;;6.13;1.73;;;;;;;;;;5073888;28;20044;-67
2021/10/23 03:30:16;;;;;;;11.90;2.47;;;;;;;;;;5069364;28;20052;-68
2021/10/23 03:32:42;;;;;;;11.95;2.60;;;;;;;;;;5068326;28;20055;-68
2021/10/23 03:35:08;;;;;;;12.93;1.55;;;;;;;;;;5071548;28;20147;-67
2021/10/23 03:37:35;;;;;;;10.68;1.98;;;;;;;;;;5077937;28;20040;-68
2021/10/23 03:40:03;;;;;;;11.48;2.60;;;;;;;;;;5063219;28;20104;-68
2021/10/23 03:42:29;;;;;;;9.32;1.98;;;;;;;;;;5068121;28;20143;-68
2021/10/23 03:44:55;;;;;;;7.63;2.10;;;;;;;;;;5063866;28;20096;-68
2021/10/23 03:47:21;;;;;;;9.23;2.00;;;;;;;;;;5063793;28;20432;-68
2021/10/23 03:49:48;;;;;;;9.55;2.50;;;;;;;;;;5074728;28;20049;-67
2021/10/23 03:52:15;;;;;;;8.00;1.40;;;;;;;;;;5067480;28;20041;-68
2021/10/23 03:54:41;;;;;;;8.60;1.80;;;;;;;;;;5066883;28;20065;-68
2021/10/23 03:57:07;;;;;;;16.08;1.98;;;;;;;;;;5063965;28;20044;-68
2021/10/23 03:59:33;;;;;;;8.25;1.50;;;;;;;;;;5063742;28;20045;-68
2021/10/23 04:02:00;;;;;;;9.38;1.88;;;;;;;;;;5063756;28;20049;-68
2021/10/23 04:04:26;;;;;;;8.70;2.58;;;;;;;;;;5063908;28;20470;-68
2021/10/23 04:06:53;;;;;;;7.68;2.17;;;;;;;;;;5063537;28;20049;-68
2021/10/23 04:09:19;;;;;;;8.93;2.40;;;;;;;;;;5064051;28;20097;-68
2021/10/23 04:11:46;;;;;;;14.45;1.50;;;;;;;;;;5063202;28;20041;-68
2021/10/23 04:14:12;;;;;;;13.27;1.80;;;;;;;;;;5063818;28;20170;-68
2021/10/23 04:16:40;;;;;;;10.25;1.67;;;;;;;;;;5063530;28;20132;-68
2021/10/23 04:19:06;;;;;;;8.57;1.45;;;;;;;;;;5063810;28;20056;-68
2021/10/23 04:21:32;;;;;;;13.02;2.17;;;;;;;;;;5063720;28;20045;-68
2021/10/23 04:23:58;;;;;;;8.55;2.28;;;;;;;;;;5063049;28;20101;-67
2021/10/23 04:26:24;;;;;;;11.00;1.38;;;;;;;;;;5063244;28;20051;-68
2021/10/23 04:28:50;;;;;;;15.32;2.17;;;;;;;;;;5063622;28;20040;-68
2021/10/23 04:31:17;;;;;;;6.90;1.73;;;;;;;;;;5062751;28;20067;-68
2021/10/23 04:33:43;;;;;;;12.40;2.00;;;;;;;;;;5076088;28;20052;-68
2021/10/23 04:36:09;;;;;;;10.05;1.73;;;;;;;;;;5065185;28;20044;-68
2021/10/23 04:38:35;;;;;;;10.07;1.52;;;;;;;;;;5063613;28;20051;-68
2021/10/23 04:41:01;;;;;;;8.65;1.65;;;;;;;;;;5062761;28;20065;-68
2021/10/23 04:43:27;;;;;;;11.27;2.22;;;;;;;;;;5071816;28;20515;-68
2021/10/23 04:45:53;;;;;;;6.05;1.60;;;;;;;;;;5072521;28;20041;-68
2021/10/23 04:48:19;;;;;;;8.10;1.58;;;;;;;;;;5063730;28;20045;-68
2021/10/23 04:50:46;;;;;;;12.00;0.95;;;;;;;;;;5067062;28;20064;-68
2021/10/23 04:53:12;;;;;;;7.40;1.80;;;;;;;;;;5063388;28;20037;-67
2021/10/23 04:55:38;;;;;;;5.63;1.17;;;;;;;;;;5063032;28;20049;-68
2021/10/23 04:58:04;;;;;;;10.98;1.35;;;;;;;;;;5063335;28;20120;-68
2021/10/23 05:00:30;;;;;;;4.97;1.30;;;;;;;;;;5063307;28;20041;-68
2021/10/23 05:02:56;;;;;;;3.60;0.93;;;;;;;;;;5074015;28;20048;-68
2021/10/23 05:05:22;;;;;;;6.50;2.22;;;;;;;;;;5064883;28;20049;-68
2021/10/23 05:07:48;;;;;;;9.55;1.83;;;;;;;;;;5072626;28;20108;-67
2021/10/23 05:10:15;;;;;;;16.75;5.70;;;;;;;;;;5066292;28;20071;-67
2021/10/23 05:12:41;;;;;;;17.48;2.88;;;;;;;;;;5066727;28;20056;-68
2021/10/23 05:15:07;;;;;;;14.43;5.22;;;;;;;;;;5066713;28;20037;-67
2021/10/23 05:17:33;;;;;;;11.75;2.63;;;;;;;;;;5066947;28;20063;-68
2021/10/23 05:20:00;;;;;;;58.97;45.00;;;;;;;;;;5081260;28;20045;-67
2021/10/23 05:22:26;;;;;;;17.08;3.42;;;;;;;;;;5078249;28;20044;-68
2021/10/23 05:24:52;;;;;;;11.90;1.90;;;;;;;;;;5066292;28;20041;-68
2021/10/23 05:27:18;;;;;;;10.68;2.97;;;;;;;;;;5066287;28;20100;-68
2021/10/23 05:29:44;;;;;;;15.13;1.95;;;;;;;;;;5066235;28;20068;-67
2021/10/23 05:32:10;;;;;;;15.77;2.17;;;;;;;;;;5079159;28;20044;-68
2021/10/23 05:34:36;;;;;;;8.65;1.58;;;;;;;;;;5073388;28;20044;-68
2021/10/23 05:37:02;;;;;;;13.48;2.00;;;;;;;;;;5073318;28;20056;-68
2021/10/23 05:39:28;;;;;;;9.13;1.75;;;;;;;;;;5068659;28;20055;-68
2021/10/23 05:41:54;;;;;;;14.30;2.13;;;;;;;;;;5084619;28;20041;-68
2021/10/23 05:44:20;;;;;;;7.88;3.03;;;;;;;;;;5071930;28;20047;-68
2021/10/23 05:46:46;;;;;;;10.18;1.90;;;;;;;;;;5076652;28;20079;-68
2021/10/23 05:49:12;;;;;;;15.10;1.88;;;;;;;;;;5066142;28;20045;-68
2021/10/23 05:51:38;;;;;;;12.75;2.17;;;;;;;;;;5065975;28;20056;-68
2021/10/23 05:54:04;;;;;;;15.95;2.05;;;;;;;;;;5065701;28;20048;-68
2021/10/23 05:56:30;;;;;;;9.43;2.20;;;;;;;;;;5077262;28;20059;-68
2021/10/23 05:59:10;;;;;;;14.05;2.50;;;;;;;;;;5065891;28;20041;-68
2021/10/23 06:01:37;;;;;;;9.77;1.80;;;;;;;;;;5065463;28;20049;-68
2021/10/23 06:04:03;;;;;;;6.75;1.63;;;;;;;;;;5066443;28;20045;-68
2021/10/23 06:06:29;;;;;;;6.70;2.33;;;;;;;;;;5073524;28;20049;-68
2021/10/23 06:08:55;;;;;;;11.70;2.70;;;;;;;;;;5065281;28;20625;-68
2021/10/23 06:11:22;;;;;;;8.27;2.53;;;;;;;;;;5064852;28;20071;-68
2021/10/23 06:13:50;;;;;;;11.27;2.17;;;;;;;;;;5067816;28;20041;-69
2021/10/23 06:16:16;;;;;;;8.52;2.13;;;;;;;;;;5082346;28;20051;-68
2021/10/23 06:18:42;;;;;;;7.78;1.73;;;;;;;;;;5084010;28;20079;-69
2021/10/23 06:21:08;;;;;;;12.10;2.08;;;;;;;;;;5082290;28;20044;-69
2021/10/23 06:23:34;;;;;;;11.48;1.70;;;;;;;;;;5081681;28;20049;-68
2021/10/23 06:26:01;;;;;;;14.55;3.13;;;;;;;;;;5083146;28;20041;-68
2021/10/23 06:28:27;;;;;;;9.25;2.17;;;;;;;;;;5074244;28;20097;-68
2021/10/23 06:30:54;;;;;;;16.73;2.53;;;;;;;;;;5071793;28;20048;-68
2021/10/23 06:33:20;;;;;;;14.13;2.25;;;;;;;;;;5070952;28;20057;-68
2021/10/23 06:35:46;;;;;;;11.88;2.17;;;;;;;;;;5066099;28;20051;-69
2021/10/23 06:38:13;;;;;;;18.77;4.10;;;;;;;;;;5073113;28;20055;-68
2021/10/23 06:40:39;;;;;;;16.60;2.10;;;;;;;;;;5083633;28;20048;-69
2021/10/23 06:43:05;;;;;;;14.68;2.65;;;;;;;;;;5081947;28;20048;-68
2021/10/23 06:45:31;;;;;;;14.10;2.60;;;;;;;;;;5068261;28;20067;-68
2021/10/23 06:47:57;;;;;;;12.73;2.33;;;;;;;;;;5066878;28;20049;-69
2021/10/23 06:50:24;;;;;;;14.35;3.00;;;;;;;;;;5065092;28;20041;-68
2021/10/23 06:52:50;;;;;;;11.60;2.92;;;;;;;;;;5079117;28;20063;-69
2021/10/23 06:55:16;;;;;;;13.02;2.85;;;;;;;;;;5072194;28;20046;-68
2021/10/23 06:57:46;;;;;;;9.88;2.20;;;;;;;;;;5069883;28;20048;-68
2021/10/23 07:00:12;;;;;;;14.85;2.10;;;;;;;;;;5074942;28;20069;-68
2021/10/23 07:02:47;;;;;;;17.52;2.28;;;;;;;;;;5067998;28;20044;-69
2021/10/23 07:05:14;;;;;;;13.15;3.08;;;;;;;;;;5078465;28;20131;-69
2021/10/23 07:07:40;;;;;;;10.88;2.08;;;;;;;;;;5072765;28;20048;-68
2021/10/23 07:10:07;;;;;;;9.73;2.30;;;;;;;;;;5083274;28;20119;-68
2021/10/23 07:12:33;;;;;;;12.20;2.55;;;;;;;;;;5083204;28;20040;-67
2021/10/23 07:14:59;;;;;;;12.68;3.08;;;;;;;;;;5081215;28;20044;-67
2021/10/23 07:17:25;;;;;;;21.70;3.30;;;;;;;;;;5083150;28;20048;-68
2021/10/23 07:19:52;;;;;;;12.80;2.83;;;;;;;;;;5077896;28;20028;-68
2021/10/23 07:22:19;;;;;;;15.45;3.03;;;;;;;;;;5075273;28;20059;-67
2021/10/23 07:24:45;;;;;;;11.10;2.95;;;;;;;;;;5081427;28;20044;-68
2021/10/23 07:27:11;;;;;;;13.32;2.50;;;;;;;;;;5078866;28;20040;-67
2021/10/23 07:29:37;;;;;;;18.42;2.67;;;;;;;;;;5075210;28;20045;-69
2021/10/23 07:32:03;;;;;;;16.05;2.78;;;;;;;;;;5068125;28;20107;-68
2021/10/23 07:34:29;;;;;;;15.98;3.22;;;;;;;;;;5064282;28;20548;-67
2021/10/23 07:36:55;;;;;;;6.40;1.92;;;;;;;;;;5075751;28;20140;-68
2021/10/23 07:39:21;;;;;;;11.40;2.10;;;;;;;;;;5078092;28;20040;-68
2021/10/23 07:41:48;;;;;;;14.35;2.35;;;;;;;;;;5081524;28;20052;-68
2021/10/23 07:44:14;;;;;;;13.23;2.50;;;;;;;;;;5072231;28;20072;-68
2021/10/23 07:46:40;;;;;;;8.82;2.35;;;;;;;;;;5083445;28;20174;-67
2021/10/23 07:49:06;;;;;;;18.70;2.72;;;;;;;;;;5080636;28;20045;-68
2021/10/23 07:51:32;;;;;;;11.38;3.28;;;;;;;;;;5068827;28;20045;-68
2021/10/23 07:53:59;;;;;;;15.00;1.90;;;;;;;;;;5074454;28;20041;-67
2021/10/23 07:56:25;;;;;;;7.78;1.27;;;;;;;;;;5082205;28;20119;-67
2021/10/23 07:58:51;;;;;;;10.32;2.35;;;;;;;;;;5080197;28;20041;-67
2021/10/23 08:01:17;;;;;;;7.95;1.67;;;;;;;;;;5078214;28;20169;-68
2021/10/23 08:03:43;;;;;;;9.52;1.70;;;;;;;;;;5082492;28;20048;-67
2021/10/23 08:06:09;;;;;;;11.23;2.13;;;;;;;;;;5089363;28;20048;-68
2021/10/23 08:08:35;;;;;;;13.93;1.77;;;;;;;;;;5080169;28;20049;-68
2021/10/23 08:11:02;;;;;;;10.65;1.98;;;;;;;;;;5072440;28;20489;-68
2021/10/23 08:13:28;;;;;;;12.80;1.70;;;;;;;;;;5086454;28;20054;-68
2021/10/23 08:15:54;;;;;;;7.90;1.90;;;;;;;;;;5087417;28;20036;-67
2021/10/23 08:18:21;;;;;;;15.00;2.33;;;;;;;;;;5084067;28;20053;-68
2021/10/23 08:20:47;;;;;;;15.15;2.28;;;;;;;;;;5080355;28;20045;-68
2021/10/23 08:23:13;;;;;;;15.65;1.77;;;;;;;;;;5079351;28;20040;-68
2021/10/23 08:25:39;;;;;;;9.98;3.10;;;;;;;;;;5080493;28;20191;-68
2021/10/23 08:28:05;;;;;;;8.50;1.70;;;;;;;;;;5079962;28;20037;-68
2021/10/23 08:30:32;;;;;;;12.45;2.40;;;;;;;;;;5081629;28;20056;-68
2021/10/23 08:32:58;;;;;;;12.13;1.90;;;;;;;;;;5063657;28;20135;-69
2021/10/23 08:35:25;;;;;;;10.20;2.03;;;;;;;;;;5063688;28;20067;-68
2021/10/23 08:37:53;;;;;;;9.95;2.55;;;;;;;;;;5063311;28;20029;-68
2021/10/23 08:40:20;;;;;;;15.63;2.70;;;;;;;;;;5064148;28;20097;-68
2021/10/23 08:42:46;;;;;;;10.65;2.72;;;;;;;;;;5081689;28;20664;-68
2021/10/23 08:45:13;;;;;;;10.75;2.55;;;;;;;;;;5083546;28;20041;-67
2021/10/23 08:47:40;;;;;;;10.10;2.13;;;;;;;;;;5080431;28;20045;-67
2021/10/23 08:50:07;;;;;;;6.63;1.90;;;;;;;;;;5070327;28;20037;-67
2021/10/23 08:52:33;;;;;;;14.60;2.90;;;;;;;;;;5079446;28;20644;-66
2021/10/23 08:54:59;;;;;;;7.03;2.35;;;;;;;;;;5083681;28;20481;-67
2021/10/23 08:57:28;;;;;;;12.10;1.42;;;;;;;;;;5086307;28;20039;-67
2021/10/23 08:59:57;;;;;;;13.27;1.98;;;;;;;;;;5088047;28;20385;-66
2021/10/23 09:02:24;;;;;;;9.18;2.45;;;;;;;;;;5085354;28;20066;-66
2021/10/23 09:04:51;;;;;;;11.98;2.55;;;;;;;;;;5084195;28;20093;-66
2021/10/23 09:07:18;;;;;;;8.73;1.75;;;;;;;;;;5085618;28;20096;-66
2021/10/23 09:09:45;;;;;;;10.73;2.33;;;;;;;;;;5081104;28;20048;-67
2021/10/23 09:12:24;;;;;;;9.77;2.05;;;;;;;;;;5080436;28;20040;-66
2021/10/23 09:14:58;;;;;;;11.63;2.20;;;;;;;;;;5080788;28;20036;-66
2021/10/23 09:17:24;;;;;;;6.78;1.38;;;;;;;;;;5077152;28;20072;-66
2021/10/23 09:19:51;;;;;;;9.98;2.15;;;;;;;;;;5082471;28;20055;-66
2021/10/23 09:22:22;;;;;;;9.23;2.15;;;;;;;;;;5074804;28;20095;-66
2021/10/23 09:24:49;;;;;;;8.43;1.98;;;;;;;;;;5083073;28;20066;-66
2021/10/23 09:27:18;;;;;;;10.73;2.55;;;;;;;;;;5079405;28;20041;-67
2021/10/23 09:29:45;;;;;;;10.75;2.97;;;;;;;;;;5088557;28;20069;-65
2021/10/23 09:32:12;;;;;;;9.00;1.50;;;;;;;;;;5086040;28;20054;-66
2021/10/23 09:34:38;;;;;;;10.65;2.10;;;;;;;;;;5075820;28;20075;-66
2021/10/23 09:37:05;;;;;;;8.90;2.63;;;;;;;;;;5072698;28;20036;-66
2021/10/23 09:39:32;;;;;;;10.35;1.98;;;;;;;;;;5067504;28;20091;-66
2021/10/23 09:42:14;;;;;;;8.05;1.92;;;;;;;;;;5077188;28;20045;-66
2021/10/23 09:44:54;;;;;;;7.78;1.50;;;;;;;;;;5078199;28;20052;-66
2021/10/23 09:47:20;;;;;;;8.77;2.47;;;;;;;;;;5083320;28;20049;-66
2021/10/23 09:50:10;;;;;;;7.90;1.73;;;;;;;;;;5084538;28;20097;-66
2021/10/23 09:53:02;;;;;;;10.75;2.30;;;;;;;;;;5068058;28;20421;-66
2021/10/23 09:55:30;;;;;;;5.47;2.17;;;;;;;;;;5073464;28;20064;-66
2021/10/23 09:58:15;;;;;;;8.82;2.08;;;;;;;;;;5065974;28;20037;-66
2021/10/23 10:00:42;;;;;;;10.40;1.60;;;;;;;;;;5074228;28;20040;-67
2021/10/23 10:03:09;;;;;;;14.55;2.83;;;;;;;;;;5077685;28;20050;-67
2021/10/23 10:05:36;;;;;;;7.25;2.13;;;;;;;;;;5072421;28;20049;-67
2021/10/23 10:08:11;;;;;;;8.70;1.70;;;;;;;;;;5076953;28;20044;-67
2021/10/23 10:10:39;;;;;;;10.75;1.90;;;;;;;;;;5085895;28;20371;-73
2021/10/23 10:13:06;;;;;;;11.50;2.35;;;;;;;;;;5076836;28;20128;-66
2021/10/23 10:15:33;;;;;;;9.53;2.23;;;;;;;;;;5073748;28;20049;-66
2021/10/23 10:18:03;;;;;;;10.38;1.90;;;;;;;;;;5078300;28;20063;-66
2021/10/23 10:20:30;;;;;;;10.35;1.50;;;;;;;;;;5076433;28;20309;-65
2021/10/23 10:22:57;;;;;;;4.85;1.55;;;;;;;;;;5073589;28;20045;-65
2021/10/23 10:25:24;;;;;;;9.43;1.75;;;;;;;;;;5083946;28;20415;-64
2021/10/23 10:27:53;;;;;;;10.18;1.45;;;;;;;;;;5074279;28;20048;-63
2021/10/23 10:30:27;;;;;;;8.35;1.58;;;;;;;;;;5075555;28;20060;-63
2021/10/23 10:32:54;;;;;;;12.77;1.90;;;;;;;;;;5077481;28;20076;-65
2021/10/23 10:44:13;;;;;;;9.07;1.75;;;;;;;;;;5040786;28;20537;-65
2021/10/23 10:46:57;;;;;;;11.48;1.67;;;;;;;;;;5040900;28;20053;-64
2021/10/23 10:49:42;;;;;;;11.25;1.50;;;;;;;;;;5041551;28;20073;-64
2021/10/23 10:52:28;;;;;;;9.77;1.55;;;;;;;;;;5039850;28;20441;-63
2021/10/23 10:55:11;;;;;;;7.55;1.27;;;;;;;;;;5040909;28;20053;-63
2021/10/23 10:57:56;;;;;;;5.40;1.83;;;;;;;;;;5040678;28;20050;-63
2021/10/23 11:00:22;;;;;;;10.73;1.85;;;;;;;;;;5040290;28;20041;-64
2021/10/23 11:02:48;;;;;;;15.02;1.52;;;;;;;;;;5036899;28;20049;-64
2021/10/23 11:05:18;;;;;;;8.20;1.45;;;;;;;;;;5036453;28;20496;-63
2021/10/23 11:08:09;;;;;;;10.32;2.03;;;;;;;;;;5036331;28;20057;-63
2021/10/23 11:10:53;;;;;;;6.30;1.45;;;;;;;;;;5037682;28;20092;-64
2021/10/23 11:13:30;;;;;;;14.45;1.80;;;;;;;;;;5040420;28;20047;-63
2021/10/23 11:15:56;;;;;;;7.82;2.00;;;;;;;;;;5034371;28;20064;-63
2021/10/23 11:18:22;;;;;;;10.05;1.65;;;;;;;;;;5062816;28;20478;-62
2021/10/23 11:20:50;;;;;;;6.50;1.48;;;;;;;;;;5073422;28;20041;-67
2021/10/23 11:23:21;;;;;;;8.10;1.40;;;;;;;;;;5074676;28;20063;-66
2021/10/23 11:25:47;;;;;;;5.72;1.70;;;;;;;;;;5071761;28;20056;-62
2021/10/23 11:28:13;;;;;;;13.70;1.65;;;;;;;;;;5077317;28;20079;-68
2021/10/23 11:30:43;;;;;;;9.30;1.90;;;;;;;;;;5091355;28;20056;-68
2021/10/23 11:33:13;;;;;;;6.80;1.80;;;;;;;;;;5078449;28;20053;-63
2021/10/23 11:35:49;;;;;;;4.80;1.42;;;;;;;;;;5082545;28;20065;-65
2021/10/23 11:38:15;;;;;;;8.93;1.80;;;;;;;;;;5077430;28;20060;-66
2021/10/23 11:40:42;;;;;;;6.90;1.20;;;;;;;;;;5067946;28;20068;-61
2021/10/23 11:43:12;;;;;;;4.68;1.00;;;;;;;;;;5075612;28;20048;-66
2021/10/23 11:45:38;;;;;;;5.25;1.33;;;;;;;;;;5081714;28;20131;-67
2021/10/23 11:48:05;;;;;;;7.50;1.30;;;;;;;;;;5081866;28;20070;-67
2021/10/23 11:50:36;;;;;;;8.07;1.75;;;;;;;;;;5081460;28;20059;-66
2021/10/23 11:53:13;;;;;;;8.23;1.60;;;;;;;;;;5076548;28;20045;-70
2021/10/23 11:55:45;;;;;;;8.40;1.55;;;;;;;;;;5080943;28;20079;-66
2021/10/23 11:58:12;;;;;;;10.60;1.65;;;;;;;;;;5070186;28;20051;-68
2021/10/23 12:00:38;;;;;;;;;;;;;;;;;;5067611;28;20048;-62
2021/10/23 12:03:06;;;;;;;6.60;1.58;;;;;;;;;;5066446;28;19931;-64
2021/10/23 12:05:38;;;;;;;9.43;1.90;;;;;;;;;;5067856;28;20059;-64
2021/10/23 12:08:20;;;;;;;10.65;2.22;;;;;;;;;;5076341;28;20096;-63
2021/10/23 12:11:05;;;;;;;9.38;2.00;;;;;;;;;;5080756;28;20044;-62
2021/10/23 12:13:44;;;;;;;6.13;1.58;;;;;;;;;;5076974;28;20055;-62
2021/10/23 12:16:12;;;;;;;15.35;1.52;;;;;;;;;;5076048;28;20041;-62
2021/10/23 12:18:39;;;;;;;5.65;1.83;;;;;;;;;;5080551;28;20096;-62
2021/10/23 12:21:12;;;;;;;10.77;2.05;;;;;;;;;;5080893;28;20044;-63
2021/10/23 12:23:46;;;;;;;6.00;1.30;;;;;;;;;;5082862;28;20060;-63
2021/10/23 12:26:12;;;;;;;7.45;1.90;;;;;;;;;;5077149;28;20045;-63
2021/10/23 12:28:57;;;;;;;5.47;1.55;;;;;;;;;;5096983;28;20049;-62
2021/10/23 12:31:23;;;;;;;4.95;1.38;;;;;;;;;;5074203;28;20089;-66
2021/10/23 12:34:05;;;;;;;10.02;1.67;;;;;;;;;;5084683;28;20048;-65
2021/10/23 12:36:34;;;;;;;10.25;2.60;;;;;;;;;;5084156;28;20044;-68
2021/10/23 12:39:17;;;;;;;6.43;1.58;;;;;;;;;;5083423;28;20136;-64
2021/10/23 12:41:43;;;;;;;6.45;1.42;;;;;;;;;;5095177;28;20522;-65
2021/10/23 12:44:12;;;;;;;7.07;1.35;;;;;;;;;;5088985;28;20050;-73
2021/10/23 12:46:38;;;;;;;5.25;1.25;;;;;;;;;;5091195;28;20049;-66
2021/10/23 12:49:04;;;;;;;7.30;1.45;;;;;;;;;;5085295;28;20043;-66
2021/10/23 12:51:32;;;;;;;7.80;2.25;;;;;;;;;;5082880;28;20048;-65
2021/10/23 12:53:58;;;;;;;5.68;1.50;;;;;;;;;;5085400;28;20052;-75
2021/10/23 12:56:24;;;;;;;8.05;1.77;;;;;;;;;;5081921;28;20074;-67
2021/10/23 12:58:50;;;;;;;5.18;1.42;;;;;;;;;;5079930;28;20041;-63
2021/10/23 13:01:17;;;;;;;16.35;2.13;;;;;;;;;;5089529;28;20120;-63
2021/10/23 13:03:43;;;;;;;7.47;1.70;;;;;;;;;;5079564;28;20044;-63
2021/10/23 13:06:09;;;;;;;10.77;1.73;;;;;;;;;;5083253;28;20043;-63
2021/10/23 13:08:35;;;;;;;11.95;1.73;;;;;;;;;;5096073;28;20048;-63
2021/10/23 13:11:01;;;;;;;18.33;3.63;;;;;;;;;;5084723;28;20087;-63
2021/10/23 13:13:27;;;;;;;7.50;1.65;;;;;;;;;;5080799;28;20450;-63
2021/10/23 13:15:54;;;;;;;5.10;1.27;;;;;;;;;;5080278;28;20408;-63
2021/10/23 13:18:20;;;;;;;9.50;1.70;;;;;;;;;;5079988;28;20101;-63
2021/10/23 13:20:46;;;;;;;7.85;1.48;;;;;;;;;;5082795;28;20124;-63
2021/10/23 13:23:12;;;;;;;8.88;1.65;;;;;;;;;;5080833;28;20105;-63
2021/10/23 13:25:38;;;;;;;4.38;1.30;;;;;;;;;;5084081;28;20094;-63
2021/10/23 13:28:04;;;;;;;5.22;1.30;;;;;;;;;;5079873;28;20048;-63
2021/10/23 13:30:32;;;;;;;9.30;2.05;;;;;;;;;;5081152;28;20135;-63
2021/10/23 13:32:58;;;;;;;5.50;1.33;;;;;;;;;;5073528;28;20060;-63
2021/10/23 13:35:25;;;;;;;9.07;1.65;;;;;;;;;;5066442;28;20064;-63
2021/10/23 13:37:51;;;;;;;9.13;1.48;;;;;;;;;;5079533;28;20041;-63
2021/10/23 13:40:17;;;;;;;6.00;1.63;;;;;;;;;;5065737;28;20049;-63
2021/10/23 13:42:44;;;;;;;4.75;1.30;;;;;;;;;;5066810;28;20626;-63
2021/10/23 13:45:10;;;;;;;11.95;1.80;;;;;;;;;;5074505;28;20044;-63
2021/10/23 13:47:38;;;;;;;4.75;1.80;;;;;;;;;;5069978;28;20171;-63
2021/10/23 13:50:04;;;;;;;12.32;1.80;;;;;;;;;;5078693;28;20101;-63
2021/10/23 13:52:33;;;;;;;6.60;1.55;;;;;;;;;;5071242;28;20055;-63
2021/10/23 13:54:59;;;;;;;6.47;1.63;;;;;;;;;;5076982;28;20076;-63
2021/10/23 13:57:25;;;;;;;12.85;2.95;;;;;;;;;;5080250;28;20107;-63
2021/10/23 13:59:51;;;;;;;8.35;1.40;;;;;;;;;;5078520;28;20570;-63
2021/10/23 14:02:17;;;;;;;4.00;1.25;;;;;;;;;;5083544;28;20048;-63
2021/10/23 14:04:43;;;;;;;13.30;1.85;;;;;;;;;;5079781;28;20047;-63
2021/10/23 14:07:09;;;;;;;16.00;1.80;;;;;;;;;;5076944;28;20162;-63
2021/10/23 14:09:36;;;;;;;6.72;1.60;;;;;;;;;;5073617;28;20044;-63
2021/10/23 14:12:02;;;;;;;5.15;1.38;;;;;;;;;;5081453;28;20103;-63
2021/10/23 14:14:28;;;;;;;5.55;1.40;;;;;;;;;;5080849;28;20052;-63
2021/10/23 14:16:54;;;;;;;10.90;1.65;;;;;;;;;;5079807;28;20189;-63
2021/10/23 14:19:21;;;;;;;6.40;1.92;;;;;;;;;;5083269;28;20078;-63
2021/10/23 14:21:47;;;;;;;7.10;1.70;;;;;;;;;;5079826;28;20049;-63
2021/10/23 14:24:13;;;;;;;8.30;1.70;;;;;;;;;;5069641;28;20056;-63
2021/10/23 14:26:40;;;;;;;5.85;1.42;;;;;;;;;;5090381;28;20052;-62
2021/10/23 14:29:08;;;;;;;12.13;1.70;;;;;;;;;;5075443;28;20051;-62
2021/10/23 14:31:35;;;;;;;10.25;1.67;;;;;;;;;;5077522;28;20048;-62
2021/10/23 14:34:01;;;;;;;8.98;1.92;;;;;;;;;;5080195;28;20041;-62
2021/10/23 14:36:28;;;;;;;6.72;1.52;;;;;;;;;;5082069;28;20048;-62
2021/10/23 14:38:55;;;;;;;3.13;1.10;;;;;;;;;;5073808;28;20090;-63
2021/10/23 14:41:22;;;;;;;9.70;2.10;;;;;;;;;;5082605;28;20066;-63
2021/10/23 14:43:48;;;;;;;7.05;1.58;;;;;;;;;;5082607;28;20053;-62
2021/10/23 14:46:15;;;;;;;11.07;1.77;;;;;;;;;;5084012;28;20051;-62